Atlantis Alhambra — 9HA2101 — position and weather

sailwx.info

Track history (hours):
 
Tides and Currents Weather Stations Pressure Air Temp Water Temp Dewpoint Dewpoint Depression Visibility Wind Speed Wind Dir Waves Ship Positions

Atlantis Alhambra

Last reported at 2017-Nov-27 12:38 UTC. Time now 2017-Dec-12 14:02 UTC.
Position N 36°50' E 023°35'.
Warning: this ship's position is 15 days out of date.

Length 109 m; draft 5.8 m.

Type: Ship (hazmat cat B). MMSI: 249960000.

Date/timePositionNaut miles runAvg speedWind from/ knotsBaromVisibWave heightAir tempDewpointWater temp
2017-Nov-27 12:38N 36°50' E 023°35'210.2
2017-Nov-27 12:26N 36°52' E 023°37'810.3
2017-Nov-27 11:42N 36°59' E 023°41'210.8
2017-Nov-27 11:31N 37°00' E 023°43'510.5
2017-Nov-27 11:01N 37°05' E 023°46'510.6
2017-Nov-27 10:30N 37°10' E 023°49'510.7
2017-Nov-27 10:00N 37°14' E 023°52'510.7
2017-Nov-27 09:30N 37°19' E 023°56'510.5
2017-Nov-27 09:00N 37°23' E 023°59'510.2
2017-Nov-27 08:30N 37°28' E 024°02'510.4
2017-Nov-27 08:01N 37°32' E 024°05'510.2
2017-Nov-27 07:31N 37°37' E 024°08'5 9.9
2017-Nov-27 07:00N 37°41' E 024°11'510.0
2017-Nov-27 06:31N 37°46' E 024°14'7 9.7
2017-Nov-27 05:49N 37°49' E 024°22'310.4
2017-Nov-27 05:31N 37°51' E 024°25'510.3
2017-Nov-27 05:01N 37°53' E 024°31'38 9.9
2017-Nov-27 01:12N 38°18' E 025°07'42 1.1
2017-Nov-25 11:41N 37°50' E 025°46'412.3
2017-Nov-25 11:21N 37°46' E 025°47'1012.0
2017-Nov-25 10:33N 37°36' E 025°49'312.2
2017-Nov-25 10:18N 37°33' E 025°49'412.5
2017-Nov-25 10:00N 37°30' E 025°49'612.1
2017-Nov-25 09:30N 37°24' E 025°53'612.2
2017-Nov-25 09:00N 37°19' E 025°57'611.3
2017-Nov-25 08:30N 37°14' E 026°01'611.2
2017-Nov-25 08:00N 37°10' E 026°05'611.7
2017-Nov-25 07:30N 37°05' E 026°08'611.2
2017-Nov-25 07:00N 36°60' E 026°12'510.8
2017-Nov-25 06:30N 36°55' E 026°16'510.9
2017-Nov-25 06:00N 36°52' E 026°21'510.9
2017-Nov-25 05:30N 36°48' E 026°26'611.0
2017-Nov-25 05:00N 36°44' E 026°30'611.3
2017-Nov-25 04:30N 36°40' E 026°36'611.4
2017-Nov-25 04:00N 36°36' E 026°41'611.2
2017-Nov-25 03:30N 36°32' E 026°46'911.1
2017-Nov-25 02:39N 36°26' E 026°55'2311.6
2017-Nov-25 00:40N 36°20' E 027°22'211.4
2017-Nov-25 00:30N 36°20' E 027°25'1211.1
2017-Nov-24 23:28N 36°22' E 027°39'611.1
2017-Nov-24 22:57N 36°24' E 027°46'  
2017-Nov-17 14:32N 35°58' E 031°33'011.0
2017-Nov-17 14:30N 35°58' E 031°33'511.1
2017-Nov-17 14:00N 35°59' E 031°26'611.1
2017-Nov-17 13:30N 35°59' E 031°19'511.0
2017-Nov-17 13:00N 35°60' E 031°13'  
Track history (hours):
 
Tides and Currents Weather Stations Pressure Air Temp Water Temp Dewpoint Dewpoint Depression Visibility Wind Speed Wind Dir Waves Ship Positions

Atlantis Alhambra

Last reported at 2017-Nov-27 12:38 UTC. Time now 2017-Dec-12 14:02 UTC.
Position N 36°50' E 023°35'.
Warning: this ship's position is 15 days out of date.

Length 109 m; draft 5.8 m.

Type: Ship (hazmat cat B). MMSI: 249960000.

Date/timePositionNaut miles runAvg speedWind from/ knotsBaromVisibWave heightAir tempDewpointWater temp
2017-Nov-27 12:38N 36°50' E 023°35'210.2
2017-Nov-27 12:26N 36°52' E 023°37'810.3
2017-Nov-27 11:42N 36°59' E 023°41'210.8
2017-Nov-27 11:31N 37°00' E 023°43'510.5
2017-Nov-27 11:01N 37°05' E 023°46'510.6
2017-Nov-27 10:30N 37°10' E 023°49'510.7
2017-Nov-27 10:00N 37°14' E 023°52'510.7
2017-Nov-27 09:30N 37°19' E 023°56'510.5
2017-Nov-27 09:00N 37°23' E 023°59'510.2
2017-Nov-27 08:30N 37°28' E 024°02'510.4
2017-Nov-27 08:01N 37°32' E 024°05'510.2
2017-Nov-27 07:31N 37°37' E 024°08'5 9.9
2017-Nov-27 07:00N 37°41' E 024°11'510.0
2017-Nov-27 06:31N 37°46' E 024°14'7 9.7
2017-Nov-27 05:49N 37°49' E 024°22'310.4
2017-Nov-27 05:31N 37°51' E 024°25'510.3
2017-Nov-27 05:01N 37°53' E 024°31'38 9.9
2017-Nov-27 01:12N 38°18' E 025°07'42 1.1
2017-Nov-25 11:41N 37°50' E 025°46'412.3
2017-Nov-25 11:21N 37°46' E 025°47'1012.0
2017-Nov-25 10:33N 37°36' E 025°49'312.2
2017-Nov-25 10:18N 37°33' E 025°49'412.5
2017-Nov-25 10:00N 37°30' E 025°49'612.1
2017-Nov-25 09:30N 37°24' E 025°53'612.2
2017-Nov-25 09:00N 37°19' E 025°57'611.3
2017-Nov-25 08:30N 37°14' E 026°01'611.2
2017-Nov-25 08:00N 37°10' E 026°05'611.7
2017-Nov-25 07:30N 37°05' E 026°08'611.2
2017-Nov-25 07:00N 36°60' E 026°12'510.8
2017-Nov-25 06:30N 36°55' E 026°16'510.9
2017-Nov-25 06:00N 36°52' E 026°21'510.9
2017-Nov-25 05:30N 36°48' E 026°26'611.0
2017-Nov-25 05:00N 36°44' E 026°30'611.3
2017-Nov-25 04:30N 36°40' E 026°36'611.4
2017-Nov-25 04:00N 36°36' E 026°41'611.2
2017-Nov-25 03:30N 36°32' E 026°46'911.1
2017-Nov-25 02:39N 36°26' E 026°55'2311.6
2017-Nov-25 00:40N 36°20' E 027°22'211.4
2017-Nov-25 00:30N 36°20' E 027°25'1211.1
2017-Nov-24 23:28N 36°22' E 027°39'611.1
2017-Nov-24 22:57N 36°24' E 027°46'  
2017-Nov-17 14:32N 35°58' E 031°33'011.0
2017-Nov-17 14:30N 35°58' E 031°33'511.1
2017-Nov-17 14:00N 35°59' E 031°26'611.1
2017-Nov-17 13:30N 35°59' E 031°19'511.0
2017-Nov-17 13:00N 35°60' E 031°13'  

Dump ship's entire track history